Time,TemperatureF,DewpointF,PressureIn,WindDirection,WindDirectionDegrees,WindSpeedMPH,WindSpeedGustMPH,Humidity,HourlyPrecipIn,Conditions,Clouds,dailyrainin,SolarRadiationWatts/m^2,SoftwareType,DateUTC
2013-09-15 00:00:00,59.0,59.0,-100.00,SW,220,5.0,13.0,100,0.00,,,-99.99,0.000000,,2013-09-15 07:00:00,
2013-09-15 00:42:00,59.0,59.0,-100.00,SW,220,5.0,13.0,100,0.00,,,-99.99,0.000000,,2013-09-15 07:42:00,
2013-09-15 00:52:00,59.0,59.0,-100.00,SW,220,5.0,13.0,100,0.00,,,-99.99,0.000000,,2013-09-15 07:52:00,
2013-09-15 01:00:00,59.0,59.0,-100.00,SSW,204,6.0,10.0,100,0.00,,,0.00,0.000000,,2013-09-15 08:00:00,
2013-09-15 01:22:00,59.0,59.0,-100.00,SSW,204,6.0,10.0,100,0.00,,,0.00,0.000000,,2013-09-15 08:22:00,
2013-09-15 01:32:00,59.0,59.0,-100.00,SSW,204,6.0,10.0,100,0.00,,,0.00,0.000000,,2013-09-15 08:32:00,
2013-09-15 01:43:00,59.0,59.0,-100.00,SSW,204,6.0,10.0,100,0.00,,,0.00,0.000000,,2013-09-15 08:43:00,
2013-09-15 01:52:00,59.0,59.0,-100.00,SSW,204,6.0,10.0,100,0.00,,,0.00,0.000000,,2013-09-15 08:52:00,
2013-09-15 02:00:00,59.0,59.0,-100.00,SSW,205,6.0,9.0,100,0.00,,,0.00,0.000000,,2013-09-15 09:00:00,
2013-09-15 02:22:00,59.0,59.0,-100.00,SSW,205,6.0,9.0,100,0.00,,,0.00,0.000000,,2013-09-15 09:22:00,
2013-09-15 02:33:00,59.0,59.0,-100.00,SSW,205,6.0,9.0,100,0.00,,,0.00,0.000000,,2013-09-15 09:33:00,
2013-09-15 02:44:00,59.0,59.0,-100.00,SSW,205,6.0,9.0,100,0.00,,,0.00,0.000000,,2013-09-15 09:44:00,
2013-09-15 02:53:00,59.0,59.0,-100.00,SSW,205,6.0,9.0,100,0.00,,,0.00,0.000000,,2013-09-15 09:53:00,
2013-09-15 03:00:00,59.0,59.0,-100.00,SSW,202,4.0,10.0,100,0.00,,,0.00,0.000000,,2013-09-15 10:00:00,
2013-09-15 03:23:00,59.0,59.0,-100.00,SSW,202,4.0,10.0,100,0.00,,,0.00,0.000000,,2013-09-15 10:23:00,
2013-09-15 03:32:00,59.0,59.0,-100.00,SSW,202,4.0,10.0,100,0.00,,,0.00,0.000000,,2013-09-15 10:32:00,
2013-09-15 03:43:00,59.0,59.0,-100.00,SSW,202,4.0,10.0,100,0.00,,,0.00,0.000000,,2013-09-15 10:43:00,
2013-09-15 03:53:00,59.0,59.0,-100.00,SSW,202,4.0,10.0,100,0.00,,,0.00,0.000000,,2013-09-15 10:53:00,
2013-09-15 04:00:00,59.0,59.0,-100.00,SW,217,3.0,6.0,99,0.00,,,0.00,0.000000,,2013-09-15 11:00:00,
2013-09-15 04:22:00,59.0,59.0,-100.00,SW,217,3.0,6.0,99,0.00,,,0.00,0.000000,,2013-09-15 11:22:00,
2013-09-15 04:33:00,59.0,59.0,-100.00,SW,217,3.0,6.0,99,0.00,,,0.00,0.000000,,2013-09-15 11:33:00,
2013-09-15 04:42:00,59.0,59.0,-100.00,SW,217,3.0,6.0,99,0.00,,,0.00,0.000000,,2013-09-15 11:42:00,
2013-09-15 04:52:00,59.0,59.0,-100.00,SW,217,3.0,6.0,99,0.00,,,0.00,0.000000,,2013-09-15 11:52:00,
2013-09-15 05:00:00,59.0,59.0,-100.00,SW,220,6.0,8.0,100,0.00,,,0.00,0.000000,,2013-09-15 12:00:00,
2013-09-15 05:22:00,59.0,59.0,-100.00,SW,220,6.0,8.0,100,0.00,,,0.00,0.000000,,2013-09-15 12:22:00,
2013-09-15 05:32:00,59.0,59.0,-100.00,SW,220,6.0,8.0,100,0.00,,,0.00,0.000000,,2013-09-15 12:32:00,
2013-09-15 05:42:00,59.0,59.0,-100.00,SW,220,6.0,8.0,100,0.00,,,0.00,0.000000,,2013-09-15 12:42:00,
2013-09-15 05:52:00,59.0,59.0,-100.00,SW,220,6.0,8.0,100,0.00,,,0.00,0.000000,,2013-09-15 12:52:00,
2013-09-15 06:00:00,56.0,56.0,-100.00,SSW,208,2.0,8.0,100,0.00,,,0.00,0.000000,,2013-09-15 13:00:00,
2013-09-15 06:42:00,56.0,56.0,-100.00,SSW,208,2.0,8.0,100,0.00,,,0.00,0.000000,,2013-09-15 13:42:00,
2013-09-15 06:52:00,56.0,56.0,-100.00,SSW,208,2.0,8.0,100,0.00,,,0.00,0.000000,,2013-09-15 13:52:00,
2013-09-15 12:00:00,54.0,54.0,-100.00,SE,141,5.0,20.0,100,0.02,,,0.02,29.000000,,2013-09-15 19:00:00,
2013-09-15 12:42:00,54.0,54.0,-100.00,SE,141,5.0,20.0,100,0.02,,,0.02,29.000000,,2013-09-15 19:42:00,
2013-09-15 12:52:00,54.0,54.0,-100.00,SE,141,5.0,20.0,100,0.02,,,0.02,29.000000,,2013-09-15 19:52:00,
2013-09-15 13:00:00,59.0,59.0,-100.00,West,270,7.0,21.0,100,0.01,,,0.03,89.000000,,2013-09-15 20:00:00,
2013-09-15 13:22:00,59.0,59.0,-100.00,West,270,7.0,21.0,100,0.01,,,0.03,89.000000,,2013-09-15 20:22:00,
2013-09-15 13:32:00,59.0,59.0,-100.00,West,270,7.0,21.0,100,0.01,,,0.03,89.000000,,2013-09-15 20:32:00,
2013-09-15 13:42:00,59.0,59.0,-100.00,West,270,7.0,21.0,100,0.01,,,0.03,89.000000,,2013-09-15 20:42:00,
2013-09-15 13:53:00,59.0,59.0,-100.00,West,270,7.0,21.0,100,0.01,,,0.03,89.000000,,2013-09-15 20:53:00,
2013-09-15 14:00:00,56.0,56.0,-100.00,SW,231,13.0,24.0,100,0.00,,,0.03,301.000000,,2013-09-15 21:00:00,
2013-09-15 14:22:00,56.0,56.0,-100.00,SW,231,13.0,24.0,100,0.00,,,0.03,301.000000,,2013-09-15 21:22:00,
2013-09-15 14:34:00,56.0,56.0,-100.00,SW,231,13.0,24.0,100,0.00,,,0.03,301.000000,,2013-09-15 21:34:00,
2013-09-15 14:44:00,56.0,56.0,-100.00,SW,231,13.0,24.0,100,0.00,,,0.03,301.000000,,2013-09-15 21:44:00,
2013-09-15 14:54:00,56.0,56.0,-100.00,SW,231,13.0,24.0,100,0.00,,,0.03,301.000000,,2013-09-15 21:54:00,
2013-09-15 15:00:00,53.0,53.0,-100.00,SW,215,15.0,25.0,100,0.00,,,0.03,157.000000,,2013-09-15 22:00:00,
2013-09-15 15:23:00,53.0,53.0,-100.00,SW,215,15.0,25.0,100,0.00,,,0.03,157.000000,,2013-09-15 22:23:00,
2013-09-15 15:33:00,53.0,53.0,-100.00,SW,215,15.0,25.0,100,0.00,,,0.03,157.000000,,2013-09-15 22:33:00,
2013-09-15 15:44:00,53.0,53.0,-100.00,SW,215,15.0,25.0,100,0.00,,,0.03,157.000000,,2013-09-15 22:44:00,
2013-09-15 15:53:00,53.0,53.0,-100.00,SW,215,15.0,25.0,100,0.00,,,0.03,157.000000,,2013-09-15 22:53:00,
2013-09-15 16:00:00,53.0,53.0,-100.00,SW,220,14.0,24.0,100,0.02,,,0.05,32.000000,,2013-09-15 23:00:00,
2013-09-15 16:22:00,53.0,53.0,-100.00,SW,220,14.0,24.0,100,0.02,,,0.05,32.000000,,2013-09-15 23:22:00,
2013-09-15 16:33:00,53.0,53.0,-100.00,SW,220,14.0,24.0,100,0.02,,,0.05,32.000000,,2013-09-15 23:33:00,
2013-09-15 16:42:00,53.0,53.0,-100.00,SW,220,14.0,24.0,100,0.02,,,0.05,32.000000,,2013-09-15 23:42:00,
2013-09-15 16:52:00,53.0,53.0,-100.00,SW,220,14.0,24.0,100,0.02,,,0.05,32.000000,,2013-09-15 23:52:00,
2013-09-15 17:00:00,55.0,55.0,-100.00,SW,215,10.0,18.0,100,0.00,,,0.05,51.000000,,2013-09-16 00:00:00,
2013-09-15 17:22:00,55.0,55.0,-100.00,SW,215,10.0,18.0,100,0.00,,,0.05,51.000000,,2013-09-16 00:22:00,
2013-09-15 17:32:00,55.0,55.0,-100.00,SW,215,10.0,18.0,100,0.00,,,0.05,51.000000,,2013-09-16 00:32:00,
2013-09-15 17:42:00,55.0,55.0,-100.00,SW,215,10.0,18.0,100,0.00,,,0.05,51.000000,,2013-09-16 00:42:00,
2013-09-15 17:52:00,55.0,55.0,-100.00,SW,215,10.0,18.0,100,0.00,,,0.05,51.000000,,2013-09-16 00:52:00,
2013-09-15 18:00:00,53.0,53.0,-100.00,SW,217,12.0,19.0,100,0.00,,,0.05,37.000000,,2013-09-16 01:00:00,
2013-09-15 18:42:00,53.0,53.0,-100.00,SW,217,12.0,19.0,100,0.00,,,0.05,37.000000,,2013-09-16 01:42:00,
2013-09-15 18:52:00,53.0,53.0,-100.00,SW,217,12.0,19.0,100,0.00,,,0.05,37.000000,,2013-09-16 01:52:00,
2013-09-15 19:00:00,53.0,53.0,-100.00,SW,214,10.0,17.0,100,0.00,,,0.05,7.000000,,2013-09-16 02:00:00,
2013-09-15 19:22:00,53.0,53.0,-100.00,SW,214,10.0,17.0,100,0.00,,,0.05,7.000000,,2013-09-16 02:22:00,
2013-09-15 19:32:00,53.0,53.0,-100.00,SW,214,10.0,17.0,100,0.00,,,0.05,7.000000,,2013-09-16 02:32:00,
2013-09-15 19:42:00,53.0,53.0,-100.00,SW,214,10.0,17.0,100,0.00,,,0.05,7.000000,,2013-09-16 02:42:00,
2013-09-15 19:52:00,53.0,53.0,-100.00,SW,214,10.0,17.0,100,0.00,,,0.05,7.000000,,2013-09-16 02:52:00,
2013-09-15 20:00:00,54.0,54.0,-100.00,SSW,213,13.0,21.0,100,0.05,,,0.10,0.000000,,2013-09-16 03:00:00,
2013-09-15 20:23:00,54.0,54.0,-100.00,SSW,213,13.0,21.0,100,0.05,,,0.10,0.000000,,2013-09-16 03:23:00,
2013-09-15 20:34:00,54.0,54.0,-100.00,SSW,213,13.0,21.0,100,0.05,,,0.10,0.000000,,2013-09-16 03:34:00,
2013-09-15 20:45:00,54.0,54.0,-100.00,SSW,213,13.0,21.0,100,0.05,,,0.10,0.000000,,2013-09-16 03:45:00,
2013-09-15 20:55:00,54.0,54.0,-100.00,SSW,213,13.0,21.0,100,0.05,,,0.10,0.000000,,2013-09-16 03:55:00,
2013-09-15 21:00:00,54.0,54.0,-100.00,SW,214,13.0,20.0,100,0.02,,,0.12,0.000000,,2013-09-16 04:00:00,
2013-09-15 21:24:00,54.0,54.0,-100.00,SW,214,13.0,20.0,100,0.02,,,0.12,0.000000,,2013-09-16 04:24:00,
2013-09-15 21:34:00,54.0,54.0,-100.00,SW,214,13.0,20.0,100,0.02,,,0.12,0.000000,,2013-09-16 04:34:00,
2013-09-15 21:43:00,54.0,54.0,-100.00,SW,214,13.0,20.0,100,0.02,,,0.12,0.000000,,2013-09-16 04:43:00,
2013-09-15 21:54:00,54.0,54.0,-100.00,SW,214,13.0,20.0,100,0.02,,,0.12,0.000000,,2013-09-16 04:54:00,
2013-09-15 22:00:00,54.0,54.0,-100.00,SW,214,14.0,24.0,100,0.00,,,0.12,0.000000,,2013-09-16 05:00:00,
2013-09-15 22:22:00,54.0,54.0,-100.00,SW,214,14.0,24.0,100,0.00,,,0.12,0.000000,,2013-09-16 05:22:00,
2013-09-15 22:34:00,54.0,54.0,-100.00,SW,214,14.0,24.0,100,0.00,,,0.12,0.000000,,2013-09-16 05:34:00,
2013-09-15 22:44:00,54.0,54.0,-100.00,SW,214,14.0,24.0,100,0.00,,,0.12,0.000000,,2013-09-16 05:44:00,
2013-09-15 22:53:00,54.0,54.0,-100.00,SW,214,14.0,24.0,100,0.00,,,0.12,0.000000,,2013-09-16 05:53:00,
2013-09-15 23:00:00,54.0,54.0,-100.00,SSW,210,14.0,21.0,100,0.00,,,0.12,0.000000,,2013-09-16 06:00:00,
2013-09-15 23:22:00,54.0,54.0,-100.00,SSW,210,14.0,21.0,100,0.00,,,0.12,0.000000,,2013-09-16 06:22:00,
2013-09-15 23:32:00,54.0,54.0,-100.00,SSW,210,14.0,21.0,100,0.00,,,0.12,0.000000,,2013-09-16 06:32:00,
2013-09-15 23:43:00,54.0,54.0,-100.00,SSW,210,14.0,21.0,100,0.00,,,0.12,0.000000,,2013-09-16 06:43:00,
2013-09-15 23:52:00,54.0,54.0,-100.00,SSW,210,14.0,21.0,100,0.00,,,0.12,0.000000,,2013-09-16 06:52:00,